sensor_id;sensor_type;location;lat;lon;timestamp;temperature;humidity
36548;DHT22;22551;52.206;4.856;2023-11-21T00:03:50;7.00;99.90
36548;DHT22;22551;52.206;4.856;2023-11-21T00:08:57;7.00;99.90
36548;DHT22;22551;52.206;4.856;2023-11-21T00:14:00;7.00;99.90
36548;DHT22;22551;52.206;4.856;2023-11-21T00:19:05;7.00;99.90
36548;DHT22;22551;52.206;4.856;2023-11-21T00:24:08;7.00;99.90
36548;DHT22;22551;52.206;4.856;2023-11-21T00:29:11;7.00;99.90
36548;DHT22;22551;52.206;4.856;2023-11-21T00:34:13;7.00;99.90
36548;DHT22;22551;52.206;4.856;2023-11-21T00:39:16;7.10;99.90
36548;DHT22;22551;52.206;4.856;2023-11-21T00:44:18;7.10;99.90
36548;DHT22;22551;52.206;4.856;2023-11-21T00:49:20;7.20;99.90
36548;DHT22;22551;52.206;4.856;2023-11-21T00:54:24;7.30;99.90
36548;DHT22;22551;52.206;4.856;2023-11-21T00:59:26;7.40;99.90
36548;DHT22;22551;52.206;4.856;2023-11-21T01:04:28;7.50;99.90
36548;DHT22;22551;52.206;4.856;2023-11-21T01:09:32;7.60;99.90
36548;DHT22;22551;52.206;4.856;2023-11-21T01:14:34;7.60;99.90
36548;DHT22;22551;52.206;4.856;2023-11-21T01:19:37;7.70;99.90
36548;DHT22;22551;52.206;4.856;2023-11-21T01:24:40;7.80;99.90
36548;DHT22;22551;52.206;4.856;2023-11-21T01:29:42;7.80;99.90
36548;DHT22;22551;52.206;4.856;2023-11-21T01:34:44;7.90;99.90
36548;DHT22;22551;52.206;4.856;2023-11-21T01:39:48;8.00;99.90
36548;DHT22;22551;52.206;4.856;2023-11-21T01:44:50;8.00;99.90
36548;DHT22;22551;52.206;4.856;2023-11-21T01:49:53;8.10;99.90
36548;DHT22;22551;52.206;4.856;2023-11-21T01:54:57;8.10;99.90
36548;DHT22;22551;52.206;4.856;2023-11-21T02:00:02;8.20;99.90
36548;DHT22;22551;52.206;4.856;2023-11-21T02:05:17;8.20;99.90
36548;DHT22;22551;52.206;4.856;2023-11-21T02:10:21;8.30;99.90
36548;DHT22;22551;52.206;4.856;2023-11-21T02:15:25;8.30;99.90
36548;DHT22;22551;52.206;4.856;2023-11-21T02:20:29;8.30;99.90
36548;DHT22;22551;52.206;4.856;2023-11-21T02:25:33;8.40;99.90
36548;DHT22;22551;52.206;4.856;2023-11-21T02:30:37;8.40;99.90
36548;DHT22;22551;52.206;4.856;2023-11-21T02:35:39;8.40;99.90
36548;DHT22;22551;52.206;4.856;2023-11-21T02:40:48;8.40;99.90
36548;DHT22;22551;52.206;4.856;2023-11-21T02:45:50;8.50;99.90
36548;DHT22;22551;52.206;4.856;2023-11-21T02:50:52;8.50;99.90
36548;DHT22;22551;52.206;4.856;2023-11-21T02:55:56;8.50;99.90
36548;DHT22;22551;52.206;4.856;2023-11-21T03:00:58;8.50;99.90
36548;DHT22;22551;52.206;4.856;2023-11-21T03:06:01;8.50;99.90
36548;DHT22;22551;52.206;4.856;2023-11-21T03:11:05;8.50;99.90
36548;DHT22;22551;52.206;4.856;2023-11-21T03:16:08;8.60;99.90
36548;DHT22;22551;52.206;4.856;2023-11-21T03:21:11;8.60;99.90
36548;DHT22;22551;52.206;4.856;2023-11-21T03:26:15;8.60;99.90
36548;DHT22;22551;52.206;4.856;2023-11-21T03:31:20;8.60;99.90
36548;DHT22;22551;52.206;4.856;2023-11-21T03:36:22;8.60;99.90
36548;DHT22;22551;52.206;4.856;2023-11-21T03:41:27;8.70;99.90
36548;DHT22;22551;52.206;4.856;2023-11-21T03:46:29;8.60;99.90
36548;DHT22;22551;52.206;4.856;2023-11-21T03:51:31;8.60;99.90
36548;DHT22;22551;52.206;4.856;2023-11-21T03:56:37;8.70;99.90
36548;DHT22;22551;52.206;4.856;2023-11-21T04:01:39;8.70;99.90
36548;DHT22;22551;52.206;4.856;2023-11-21T04:06:42;8.70;99.90
36548;DHT22;22551;52.206;4.856;2023-11-21T04:11:45;8.80;99.90
36548;DHT22;22551;52.206;4.856;2023-11-21T04:16:47;8.80;99.90
36548;DHT22;22551;52.206;4.856;2023-11-21T04:21:49;8.80;99.90
36548;DHT22;22551;52.206;4.856;2023-11-21T04:26:53;8.90;99.90
36548;DHT22;22551;52.206;4.856;2023-11-21T04:31:55;8.90;99.90
36548;DHT22;22551;52.206;4.856;2023-11-21T04:36:57;9.00;99.90
36548;DHT22;22551;52.206;4.856;2023-11-21T04:42:02;9.00;99.90
36548;DHT22;22551;52.206;4.856;2023-11-21T04:47:04;8.90;99.90
36548;DHT22;22551;52.206;4.856;2023-11-21T04:52:07;8.90;99.90
36548;DHT22;22551;52.206;4.856;2023-11-21T04:57:11;8.90;99.90
36548;DHT22;22551;52.206;4.856;2023-11-21T05:02:13;8.80;99.90
36548;DHT22;22551;52.206;4.856;2023-11-21T05:07:16;8.80;99.90
36548;DHT22;22551;52.206;4.856;2023-11-21T05:12:21;8.70;99.90
36548;DHT22;22551;52.206;4.856;2023-11-21T05:17:24;8.60;99.90
36548;DHT22;22551;52.206;4.856;2023-11-21T05:22:26;8.50;99.90
36548;DHT22;22551;52.206;4.856;2023-11-21T05:27:29;8.50;99.90
36548;DHT22;22551;52.206;4.856;2023-11-21T05:32:32;8.50;99.90
36548;DHT22;22551;52.206;4.856;2023-11-21T05:37:34;8.50;99.90
36548;DHT22;22551;52.206;4.856;2023-11-21T05:42:38;8.60;99.90
36548;DHT22;22551;52.206;4.856;2023-11-21T05:47:42;8.60;99.90
36548;DHT22;22551;52.206;4.856;2023-11-21T05:52:46;8.70;99.90
36548;DHT22;22551;52.206;4.856;2023-11-21T05:57:50;8.70;99.90
36548;DHT22;22551;52.206;4.856;2023-11-21T06:02:53;8.80;99.90
36548;DHT22;22551;52.206;4.856;2023-11-21T06:07:56;8.90;99.90
36548;DHT22;22551;52.206;4.856;2023-11-21T06:13:00;9.00;99.90
36548;DHT22;22551;52.206;4.856;2023-11-21T06:18:04;9.00;99.90
36548;DHT22;22551;52.206;4.856;2023-11-21T06:23:10;9.10;99.90
36548;DHT22;22551;52.206;4.856;2023-11-21T06:28:14;9.10;99.90
36548;DHT22;22551;52.206;4.856;2023-11-21T06:33:18;9.30;99.90
36548;DHT22;22551;52.206;4.856;2023-11-21T06:38:22;9.50;99.90
36548;DHT22;22551;52.206;4.856;2023-11-21T06:43:25;9.50;99.90
36548;DHT22;22551;52.206;4.856;2023-11-21T06:48:27;9.60;99.90
36548;DHT22;22551;52.206;4.856;2023-11-21T06:53:30;9.60;99.90
36548;DHT22;22551;52.206;4.856;2023-11-21T06:58:34;9.70;99.90
36548;DHT22;22551;52.206;4.856;2023-11-21T07:03:36;9.70;99.90
36548;DHT22;22551;52.206;4.856;2023-11-21T07:08:39;9.70;99.90
36548;DHT22;22551;52.206;4.856;2023-11-21T07:13:42;9.80;99.90
36548;DHT22;22551;52.206;4.856;2023-11-21T07:18:45;9.80;99.90
36548;DHT22;22551;52.206;4.856;2023-11-21T07:23:49;9.80;99.90
36548;DHT22;22551;52.206;4.856;2023-11-21T07:28:54;9.80;99.90
36548;DHT22;22551;52.206;4.856;2023-11-21T07:33:56;9.80;99.90
36548;DHT22;22551;52.206;4.856;2023-11-21T07:38:59;9.90;99.90
36548;DHT22;22551;52.206;4.856;2023-11-21T07:44:05;9.90;99.90
36548;DHT22;22551;52.206;4.856;2023-11-21T07:49:09;9.90;99.90
36548;DHT22;22551;52.206;4.856;2023-11-21T07:54:13;9.90;99.90
36548;DHT22;22551;52.206;4.856;2023-11-21T07:59:24;9.90;99.90
36548;DHT22;22551;52.206;4.856;2023-11-21T08:04:28;10.00;99.90
36548;DHT22;22551;52.206;4.856;2023-11-21T08:09:32;10.00;99.90
36548;DHT22;22551;52.206;4.856;2023-11-21T08:14:36;10.00;99.90
36548;DHT22;22551;52.206;4.856;2023-11-21T08:19:41;10.00;99.90
36548;DHT22;22551;52.206;4.856;2023-11-21T08:24:43;10.10;99.90
36548;DHT22;22551;52.206;4.856;2023-11-21T08:29:48;10.10;99.90
36548;DHT22;22551;52.206;4.856;2023-11-21T08:34:51;10.10;99.90
36548;DHT22;22551;52.206;4.856;2023-11-21T08:39:53;10.10;99.90
36548;DHT22;22551;52.206;4.856;2023-11-21T08:44:57;10.20;99.90
36548;DHT22;22551;52.206;4.856;2023-11-21T08:49:59;10.10;99.90
36548;DHT22;22551;52.206;4.856;2023-11-21T08:55:02;10.10;99.90
36548;DHT22;22551;52.206;4.856;2023-11-21T09:00:10;10.10;99.90
36548;DHT22;22551;52.206;4.856;2023-11-21T09:05:14;10.10;99.90
36548;DHT22;22551;52.206;4.856;2023-11-21T09:10:19;10.20;99.90
36548;DHT22;22551;52.206;4.856;2023-11-21T09:15:23;10.20;99.90
36548;DHT22;22551;52.206;4.856;2023-11-21T09:20:25;10.20;99.90
36548;DHT22;22551;52.206;4.856;2023-11-21T09:25:28;10.10;99.90
36548;DHT22;22551;52.206;4.856;2023-11-21T09:30:35;10.20;99.90
36548;DHT22;22551;52.206;4.856;2023-11-21T09:35:37;10.10;99.90
36548;DHT22;22551;52.206;4.856;2023-11-21T09:45:56;10.20;99.90
36548;DHT22;22551;52.206;4.856;2023-11-21T10:47:58;10.10;99.90
36548;DHT22;22551;52.206;4.856;2023-11-21T10:53:02;10.10;99.90
36548;DHT22;22551;52.206;4.856;2023-11-21T10:58:05;10.10;99.90
36548;DHT22;22551;52.206;4.856;2023-11-21T11:03:12;10.10;99.90
36548;DHT22;22551;52.206;4.856;2023-11-21T11:08:15;10.00;99.90
36548;DHT22;22551;52.206;4.856;2023-11-21T11:13:19;10.10;99.90
36548;DHT22;22551;52.206;4.856;2023-11-21T11:18:23;10.10;99.90
36548;DHT22;22551;52.206;4.856;2023-11-21T11:23:45;10.10;99.90
36548;DHT22;22551;52.206;4.856;2023-11-21T12:11:45;9.80;99.90
36548;DHT22;22551;52.206;4.856;2023-11-21T12:16:47;9.80;99.90
36548;DHT22;22551;52.206;4.856;2023-11-21T12:21:49;9.80;99.90
36548;DHT22;22551;52.206;4.856;2023-11-21T12:26:54;9.70;99.90
36548;DHT22;22551;52.206;4.856;2023-11-21T12:31:56;9.70;99.90
36548;DHT22;22551;52.206;4.856;2023-11-21T12:36:59;9.70;99.90
36548;DHT22;22551;52.206;4.856;2023-11-21T12:42:03;9.70;99.90
36548;DHT22;22551;52.206;4.856;2023-11-21T12:47:07;9.80;99.90
36548;DHT22;22551;52.206;4.856;2023-11-21T12:52:09;9.70;99.90
36548;DHT22;22551;52.206;4.856;2023-11-21T12:57:13;9.70;99.90
36548;DHT22;22551;52.206;4.856;2023-11-21T13:02:16;9.70;99.90
36548;DHT22;22551;52.206;4.856;2023-11-21T13:07:18;9.70;99.90
36548;DHT22;22551;52.206;4.856;2023-11-21T13:12:25;9.70;99.90
36548;DHT22;22551;52.206;4.856;2023-11-21T13:17:27;9.50;99.90
36548;DHT22;22551;52.206;4.856;2023-11-21T13:22:29;9.60;99.90
36548;DHT22;22551;52.206;4.856;2023-11-21T13:27:34;9.50;99.90
36548;DHT22;22551;52.206;4.856;2023-11-21T13:32:37;9.50;99.90
36548;DHT22;22551;52.206;4.856;2023-11-21T13:37:41;9.50;99.90
36548;DHT22;22551;52.206;4.856;2023-11-21T13:42:46;9.50;99.90
36548;DHT22;22551;52.206;4.856;2023-11-21T13:47:49;9.40;99.90
36548;DHT22;22551;52.206;4.856;2023-11-21T13:52:54;9.50;99.90
36548;DHT22;22551;52.206;4.856;2023-11-21T13:57:57;9.40;99.90
36548;DHT22;22551;52.206;4.856;2023-11-21T14:03:05;9.50;99.90
36548;DHT22;22551;52.206;4.856;2023-11-21T14:08:18;9.50;99.90
36548;DHT22;22551;52.206;4.856;2023-11-21T14:13:23;9.50;99.90
36548;DHT22;22551;52.206;4.856;2023-11-21T14:18:25;9.40;99.90
36548;DHT22;22551;52.206;4.856;2023-11-21T14:23:31;9.40;99.90
36548;DHT22;22551;52.206;4.856;2023-11-21T14:28:37;9.40;99.90
36548;DHT22;22551;52.206;4.856;2023-11-21T14:33:40;9.40;99.90
36548;DHT22;22551;52.206;4.856;2023-11-21T14:38:42;9.30;99.90
36548;DHT22;22551;52.206;4.856;2023-11-21T14:43:45;9.30;99.90
36548;DHT22;22551;52.206;4.856;2023-11-21T14:59:12;9.20;99.90
36548;DHT22;22551;52.206;4.856;2023-11-21T15:04:17;9.20;99.90
36548;DHT22;22551;52.206;4.856;2023-11-21T15:09:32;9.10;99.90
36548;DHT22;22551;52.206;4.856;2023-11-21T15:14:43;9.00;99.90
36548;DHT22;22551;52.206;4.856;2023-11-21T15:19:46;9.00;99.90
36548;DHT22;22551;52.206;4.856;2023-11-21T15:24:48;9.00;99.90
36548;DHT22;22551;52.206;4.856;2023-11-21T15:29:52;8.90;99.90
36548;DHT22;22551;52.206;4.856;2023-11-21T15:34:54;8.90;99.90
36548;DHT22;22551;52.206;4.856;2023-11-21T15:39:56;8.90;99.90
36548;DHT22;22551;52.206;4.856;2023-11-21T15:45:00;8.80;99.90
36548;DHT22;22551;52.206;4.856;2023-11-21T15:50:02;8.70;99.90
36548;DHT22;22551;52.206;4.856;2023-11-21T15:55:09;8.80;99.90
36548;DHT22;22551;52.206;4.856;2023-11-21T16:00:14;8.70;99.90
36548;DHT22;22551;52.206;4.856;2023-11-21T16:05:20;8.70;99.90
36548;DHT22;22551;52.206;4.856;2023-11-21T16:10:22;8.80;99.90
36548;DHT22;22551;52.206;4.856;2023-11-21T16:15:26;8.80;99.90
36548;DHT22;22551;52.206;4.856;2023-11-21T16:20:29;9.10;99.90
36548;DHT22;22551;52.206;4.856;2023-11-21T16:25:31;8.90;99.90
36548;DHT22;22551;52.206;4.856;2023-11-21T16:30:34;9.20;99.90
36548;DHT22;22551;52.206;4.856;2023-11-21T16:35:37;8.90;99.90
36548;DHT22;22551;52.206;4.856;2023-11-21T16:40:42;9.20;99.90
36548;DHT22;22551;52.206;4.856;2023-11-21T16:45:47;8.80;99.90
36548;DHT22;22551;52.206;4.856;2023-11-21T16:50:52;8.80;99.90
36548;DHT22;22551;52.206;4.856;2023-11-21T16:55:54;8.80;99.90
36548;DHT22;22551;52.206;4.856;2023-11-21T17:00:58;8.70;99.90
36548;DHT22;22551;52.206;4.856;2023-11-21T17:06:00;8.60;99.90
36548;DHT22;22551;52.206;4.856;2023-11-21T17:11:06;8.50;99.90
36548;DHT22;22551;52.206;4.856;2023-11-21T17:16:16;8.50;99.90
36548;DHT22;22551;52.206;4.856;2023-11-21T17:21:18;8.40;99.90
36548;DHT22;22551;52.206;4.856;2023-11-21T17:26:20;8.20;99.90
36548;DHT22;22551;52.206;4.856;2023-11-21T17:31:24;8.20;99.90
36548;DHT22;22551;52.206;4.856;2023-11-21T17:36:26;8.20;99.90
36548;DHT22;22551;52.206;4.856;2023-11-21T17:41:28;8.20;99.90
36548;DHT22;22551;52.206;4.856;2023-11-21T17:46:32;8.30;99.90
36548;DHT22;22551;52.206;4.856;2023-11-21T17:51:37;8.10;99.90
36548;DHT22;22551;52.206;4.856;2023-11-21T17:56:40;8.10;99.90
36548;DHT22;22551;52.206;4.856;2023-11-21T18:01:46;8.20;99.90
36548;DHT22;22551;52.206;4.856;2023-11-21T18:06:48;8.20;99.90
36548;DHT22;22551;52.206;4.856;2023-11-21T18:11:50;8.00;99.90
36548;DHT22;22551;52.206;4.856;2023-11-21T18:16:54;8.00;99.90
36548;DHT22;22551;52.206;4.856;2023-11-21T18:21:56;8.00;99.90
36548;DHT22;22551;52.206;4.856;2023-11-21T18:27:00;7.80;99.90
36548;DHT22;22551;52.206;4.856;2023-11-21T18:42:24;7.40;99.90
36548;DHT22;22551;52.206;4.856;2023-11-21T18:47:28;7.40;99.90
36548;DHT22;22551;52.206;4.856;2023-11-21T18:52:30;7.30;99.90
36548;DHT22;22551;52.206;4.856;2023-11-21T18:57:35;6.90;99.90
36548;DHT22;22551;52.206;4.856;2023-11-21T19:02:37;6.90;99.90
36548;DHT22;22551;52.206;4.856;2023-11-21T19:07:40;6.80;99.90
36548;DHT22;22551;52.206;4.856;2023-11-21T19:12:43;6.70;99.90
36548;DHT22;22551;52.206;4.856;2023-11-21T19:17:45;6.60;99.90
36548;DHT22;22551;52.206;4.856;2023-11-21T19:22:47;6.70;99.90
36548;DHT22;22551;52.206;4.856;2023-11-21T19:27:51;6.60;99.90
36548;DHT22;22551;52.206;4.856;2023-11-21T19:32:53;6.70;99.90
36548;DHT22;22551;52.206;4.856;2023-11-21T19:37:55;6.80;99.90
36548;DHT22;22551;52.206;4.856;2023-11-21T19:42:59;6.70;99.90
36548;DHT22;22551;52.206;4.856;2023-11-21T19:53:13;6.80;99.90
36548;DHT22;22551;52.206;4.856;2023-11-21T19:58:16;6.70;99.90
36548;DHT22;22551;52.206;4.856;2023-11-21T20:03:19;6.60;99.90
36548;DHT22;22551;52.206;4.856;2023-11-21T20:08:21;6.50;99.90
36548;DHT22;22551;52.206;4.856;2023-11-21T20:13:25;6.50;99.90
36548;DHT22;22551;52.206;4.856;2023-11-21T20:18:27;6.40;99.90
36548;DHT22;22551;52.206;4.856;2023-11-21T20:23:30;6.40;99.90
36548;DHT22;22551;52.206;4.856;2023-11-21T20:28:34;6.30;99.90
36548;DHT22;22551;52.206;4.856;2023-11-21T20:33:36;6.20;99.90
36548;DHT22;22551;52.206;4.856;2023-11-21T20:38:38;6.20;99.90
36548;DHT22;22551;52.206;4.856;2023-11-21T20:43:41;6.00;99.90
36548;DHT22;22551;52.206;4.856;2023-11-21T20:48:44;6.00;99.90
36548;DHT22;22551;52.206;4.856;2023-11-21T20:53:46;5.90;99.90
36548;DHT22;22551;52.206;4.856;2023-11-21T20:58:49;5.90;99.90
36548;DHT22;22551;52.206;4.856;2023-11-21T21:03:51;5.80;99.90
36548;DHT22;22551;52.206;4.856;2023-11-21T21:08:54;5.70;99.90
36548;DHT22;22551;52.206;4.856;2023-11-21T21:13:58;5.70;99.90
36548;DHT22;22551;52.206;4.856;2023-11-21T21:19:00;5.70;99.90
36548;DHT22;22551;52.206;4.856;2023-11-21T21:24:05;5.60;99.90
36548;DHT22;22551;52.206;4.856;2023-11-21T21:29:09;5.60;99.90
36548;DHT22;22551;52.206;4.856;2023-11-21T21:34:11;5.50;99.90
36548;DHT22;22551;52.206;4.856;2023-11-21T21:39:15;5.50;99.90
36548;DHT22;22551;52.206;4.856;2023-11-21T21:44:21;5.50;99.90
36548;DHT22;22551;52.206;4.856;2023-11-21T21:49:24;5.50;99.90
36548;DHT22;22551;52.206;4.856;2023-11-21T21:54:26;5.50;99.90
36548;DHT22;22551;52.206;4.856;2023-11-21T21:59:30;5.40;99.90
36548;DHT22;22551;52.206;4.856;2023-11-21T22:04:32;5.40;99.90
36548;DHT22;22551;52.206;4.856;2023-11-21T22:09:35;5.50;99.90
36548;DHT22;22551;52.206;4.856;2023-11-21T22:14:39;5.50;99.90
36548;DHT22;22551;52.206;4.856;2023-11-21T22:19:41;5.50;99.90
36548;DHT22;22551;52.206;4.856;2023-11-21T22:24:43;5.60;99.90
36548;DHT22;22551;52.206;4.856;2023-11-21T22:29:47;5.60;99.90
36548;DHT22;22551;52.206;4.856;2023-11-21T22:34:49;5.70;99.90
36548;DHT22;22551;52.206;4.856;2023-11-21T22:39:51;5.70;99.90
36548;DHT22;22551;52.206;4.856;2023-11-21T22:44:54;5.70;99.90
36548;DHT22;22551;52.206;4.856;2023-11-21T22:49:57;5.70;99.90
36548;DHT22;22551;52.206;4.856;2023-11-21T22:54:59;5.70;99.90
36548;DHT22;22551;52.206;4.856;2023-11-21T23:00:03;5.70;99.90
36548;DHT22;22551;52.206;4.856;2023-11-21T23:05:12;5.70;99.90
36548;DHT22;22551;52.206;4.856;2023-11-21T23:10:14;5.70;99.90
36548;DHT22;22551;52.206;4.856;2023-11-21T23:15:20;5.70;99.90
36548;DHT22;22551;52.206;4.856;2023-11-21T23:20:25;5.70;99.90
36548;DHT22;22551;52.206;4.856;2023-11-21T23:25:27;5.70;99.90
36548;DHT22;22551;52.206;4.856;2023-11-21T23:30:30;5.70;99.90
36548;DHT22;22551;52.206;4.856;2023-11-21T23:35:32;5.70;99.90
36548;DHT22;22551;52.206;4.856;2023-11-21T23:40:35;5.60;99.90
36548;DHT22;22551;52.206;4.856;2023-11-21T23:45:39;5.70;99.90
36548;DHT22;22551;52.206;4.856;2023-11-21T23:50:41;5.70;99.90
36548;DHT22;22551;52.206;4.856;2023-11-21T23:55:44;5.70;99.90
